Terminal Aerodrome Forecast
Issued by NWS

Home | Current Version | Previous Version | Text Only | Print | Product List | Glossary Off
Versions: 1 2 3 4 5 6 7 8 9 10 11 12 13 14 15 16 17 18 19 20 21

000
FTUS43 KOAX 211750 CCA
TAFCDR
TAF COR
KCDR 211750Z 2118/2218 12011KT P6SM OVC012
     FM211900 11013KT P6SM OVC016
     FM212200 12015KT P6SM OVC035=

USA.gov is the U.S. government's official web portal to all federal, state and local government web resources and services.